Sauk Centre, Minnesota
Current Conditions -  °F | °C
As of 2:53 PM on Tuesday 21 Oct 2014 (Local Time) from KD39 Reporting Station
Clear Clear  
Wind Chill: 59°   Ceiling: Unl
Heat Index: 59°   Visibility: 10mi
Dew Point: 41°   Wind: 20mph
Humidity: 51%   Direction: 120°ESE
Pressure: 30.08"   Gusts: 23mph
Location:  45.74°N, 94.95°W
Report Text: KD39 211953Z AUTO 12017G20KT 10SM CLR 15/05 A3008 RMK AO2 T01480048
Loading
Personal Weather Stations






























Interactive Weather Map
Tropical Storm Tracking
New forecast layout! Learn more

10-Day Weather Forecast

Advertisements
Track Severe Weather on mobile